createdAt,value
2017-05-10T00:00:02.385Z,75.40
2017-05-10T00:02:32.295Z,74.50
2017-05-10T00:05:02.196Z,75.60
2017-05-10T00:07:31.369Z,76.40
2017-05-10T00:10:00.557Z,77.40
2017-05-10T00:12:29.708Z,73.70
2017-05-10T00:14:59.621Z,74.50
2017-05-10T00:17:29.553Z,75.10
2017-05-10T00:19:58.713Z,76.80
2017-05-10T00:22:27.869Z,75.80
2017-05-10T00:24:57.054Z,76.70
2017-05-10T00:27:26.213Z,78.00
2017-05-10T00:29:55.372Z,80.60
2017-05-10T00:32:24.545Z,80.70
2017-05-10T00:34:53.697Z,76.40
2017-05-10T00:37:22.857Z,76.20
2017-05-10T00:39:52.044Z,77.40
2017-05-10T00:42:21.204Z,77.50
2017-05-10T00:44:50.369Z,77.70
2017-05-10T00:47:19.552Z,78.00
2017-05-10T00:49:48.709Z,78.10
2017-05-10T00:52:17.865Z,78.90
2017-05-10T00:54:47.058Z,80.10
2017-05-10T00:57:16.218Z,78.40
2017-05-10T00:59:46.121Z,76.70
2017-05-10T01:02:15.705Z,77.40
2017-05-10T01:04:44.856Z,77.80
2017-05-10T01:07:14.008Z,76.20
2017-05-10T01:09:43.197Z,78.10
2017-05-10T01:12:12.357Z,78.20
2017-05-10T01:14:41.521Z,78.10
2017-05-10T01:17:11.801Z,79.30
2017-05-10T01:19:40.956Z,80.70
2017-05-10T01:22:10.884Z,79.30
2017-05-10T01:24:40.040Z,77.30
2017-05-10T01:27:09.201Z,79.50
2017-05-10T01:29:38.383Z,78.40
2017-05-10T01:32:07.553Z,79.20
2017-05-10T01:34:37.111Z,80.10
2017-05-10T01:37:05.623Z,79.30
2017-05-10T01:39:34.788Z,79.80
2017-05-10T01:42:03.940Z,80.80
2017-05-10T01:44:33.861Z,78.90
2017-05-10T01:47:03.408Z,81.90
2017-05-10T01:49:32.569Z,81.30
2017-05-10T01:52:02.152Z,78.20
2017-05-10T01:54:31.308Z,77.70
2017-05-10T01:57:00.520Z,78.00
2017-05-10T01:59:29.714Z,79.70
2017-05-10T02:01:58.864Z,78.60
2017-05-10T02:04:28.781Z,81.50
2017-05-10T02:06:58.708Z,81.80
2017-05-10T02:09:28.608Z,80.80
2017-05-10T02:11:58.521Z,78.60
2017-05-10T02:14:28.437Z,78.50
2017-05-10T02:16:58.360Z,78.20
2017-05-10T02:19:28.266Z,79.50
2017-05-10T02:21:58.196Z,81.20
2017-05-10T02:24:28.091Z,82.00
2017-05-10T02:26:56.565Z,81.60
2017-05-10T02:29:25.049Z,80.30
2017-05-10T02:31:53.517Z,80.30
2017-05-10T02:34:22.675Z,80.50
2017-05-10T02:36:51.517Z,80.70
2017-05-10T02:39:20.329Z,82.10
2017-05-10T02:41:50.232Z,82.90
2017-05-10T02:44:19.404Z,83.30
2017-05-10T02:46:48.565Z,83.60
2017-05-10T02:49:17.725Z,83.80
2017-05-10T02:51:46.908Z,85.50
2017-05-10T02:54:16.068Z,85.40
2017-05-10T02:56:45.290Z,84.60
2017-05-10T02:59:14.485Z,83.70
2017-05-10T03:01:43.644Z,84.30
2017-05-10T03:04:12.804Z,82.20
2017-05-10T03:06:41.993Z,77.20
2017-05-10T03:09:11.184Z,78.50
2017-05-10T03:11:40.345Z,82.30
2017-05-10T03:14:10.508Z,78.80
2017-05-10T03:16:39.673Z,84.10
2017-05-10T03:19:08.835Z,85.30
2017-05-10T03:21:38.000Z,81.10
2017-05-10T03:24:07.185Z,80.20
2017-05-10T03:26:36.347Z,79.80
2017-05-10T03:29:06.262Z,83.50
2017-05-10T03:31:36.180Z,84.60
2017-05-10T03:34:06.089Z,81.90
2017-05-10T03:36:36.003Z,83.40
2017-05-10T03:39:05.839Z,82.40
2017-05-10T03:41:35.037Z,84.40
2017-05-10T03:44:04.203Z,83.00
2017-05-10T03:46:33.368Z,82.40
2017-05-10T03:49:02.536Z,82.60
2017-05-10T03:51:31.701Z,82.90
2017-05-10T03:54:00.872Z,84.40
2017-05-10T03:56:30.033Z,84.30
2017-05-10T03:58:59.224Z,85.40
2017-05-10T04:01:28.383Z,86.20
2017-05-10T04:03:57.549Z,82.80
2017-05-10T04:06:26.712Z,82.20
2017-05-10T04:08:55.878Z,81.50
2017-05-10T04:11:25.045Z,82.50
2017-05-10T04:13:54.210Z,81.50
2017-05-10T04:16:23.384Z,83.90
2017-05-10T04:18:52.946Z,84.80
2017-05-10T04:21:22.103Z,85.20
2017-05-10T04:23:52.021Z,84.20
2017-05-10T04:26:21.916Z,85.50
2017-05-10T04:28:51.088Z,83.80
2017-05-10T04:31:20.245Z,84.00
2017-05-10T04:33:49.785Z,84.00
2017-05-10T04:36:18.945Z,83.30
2017-05-10T04:38:48.112Z,84.40
2017-05-10T04:41:18.288Z,83.50
2017-05-10T04:43:47.453Z,83.80
2017-05-10T04:46:17.367Z,82.40
2017-05-10T04:48:47.282Z,82.30
2017-05-10T04:51:17.220Z,82.10
2017-05-10T04:53:46.660Z,82.90
2017-05-10T04:56:15.815Z,82.50
2017-05-10T04:58:44.990Z,82.10
2017-05-10T05:01:14.153Z,82.20
2017-05-10T05:03:43.321Z,82.30
2017-05-10T05:06:12.477Z,83.20
2017-05-10T05:08:41.677Z,83.80
2017-05-10T05:11:10.837Z,83.10
2017-05-10T05:13:39.996Z,82.50
2017-05-10T05:16:09.906Z,81.40
2017-05-10T05:18:39.809Z,82.00
2017-05-10T05:21:08.984Z,80.70
2017-05-10T05:23:38.140Z,79.80
2017-05-10T05:26:07.333Z,79.90
2017-05-10T05:28:36.492Z,79.10
2017-05-10T05:31:05.653Z,79.10
2017-05-10T05:33:34.827Z,79.30
2017-05-10T05:36:03.984Z,79.60
2017-05-10T05:38:32.960Z,78.40
2017-05-10T05:41:02.121Z,77.90
2017-05-10T05:43:31.310Z,78.60
2017-05-10T05:46:01.259Z,77.90
2017-05-10T05:48:30.424Z,75.50
2017-05-10T05:51:00.341Z,74.90
2017-05-10T05:53:30.242Z,73.80
2017-05-10T05:56:00.154Z,73.60
2017-05-10T05:58:29.314Z,72.60
2017-05-10T06:00:58.513Z,72.60
2017-05-10T06:03:27.321Z,72.80
2017-05-10T06:05:56.471Z,72.20
2017-05-10T06:08:25.636Z,72.60
2017-05-10T06:10:55.546Z,70.40
2017-05-10T06:13:24.720Z,67.70
2017-05-10T06:15:53.878Z,67.00
2017-05-10T06:18:23.079Z,64.90
2017-05-10T06:20:52.258Z,62.80
2017-05-10T06:23:22.168Z,64.10
2017-05-10T06:25:52.094Z,66.10
2017-05-10T06:28:21.988Z,65.40
2017-05-10T06:30:51.164Z,61.40
2017-05-10T06:39:03.863Z,63.10
2017-05-10T06:41:33.032Z,63.70
2017-05-10T06:44:02.197Z,63.90
2017-05-10T06:46:31.523Z,65.00
2017-05-10T06:49:01.468Z,63.20
2017-05-10T06:51:31.764Z,65.80
2017-05-10T06:54:01.017Z,63.00
2017-05-10T06:56:30.226Z,61.80
2017-05-10T06:58:59.430Z,61.20
2017-05-10T07:01:28.636Z,59.80
2017-05-10T07:03:57.840Z,62.20
2017-05-10T07:06:27.008Z,62.70
2017-05-10T07:08:56.160Z,61.60
2017-05-10T07:11:25.348Z,61.00
2017-05-10T07:13:54.500Z,60.90
2017-05-10T07:16:23.647Z,62.00
2017-05-10T07:18:52.808Z,60.10
2017-05-10T07:21:21.965Z,61.00
2017-05-10T07:23:51.137Z,61.00
2017-05-10T07:26:20.287Z,62.20
2017-05-10T07:28:49.456Z,62.60
2017-05-10T07:31:18.609Z,61.90
2017-05-10T07:33:47.812Z,60.50
2017-05-10T07:36:17.100Z,58.80
2017-05-10T07:38:46.301Z,58.20
2017-05-10T07:41:15.489Z,58.60
2017-05-10T07:43:44.765Z,58.30
2017-05-10T07:46:14.704Z,59.00
2017-05-10T07:48:43.874Z,59.20
2017-05-10T07:51:13.223Z,58.90
2017-05-10T07:53:42.387Z,59.60
2017-05-10T07:56:12.301Z,58.50
2017-05-10T07:58:42.210Z,58.60
2017-05-10T08:01:12.105Z,57.10
2017-05-10T08:03:41.283Z,57.30
2017-05-10T08:06:10.431Z,58.70
2017-05-10T08:08:40.345Z,56.70
2017-05-10T08:11:10.263Z,56.30
2017-05-10T08:13:40.159Z,56.80
2017-05-10T08:16:09.345Z,56.20
2017-05-10T08:18:38.499Z,54.50
2017-05-10T08:21:07.689Z,56.60
2017-05-10T08:23:36.853Z,54.90
2017-05-10T08:26:06.008Z,55.60
2017-05-10T08:28:35.185Z,55.10
2017-05-10T08:31:04.340Z,54.30
2017-05-10T08:33:33.659Z,55.60
2017-05-10T08:36:02.849Z,54.70
2017-05-10T08:38:32.026Z,54.70
2017-05-10T08:41:01.191Z,54.80
2017-05-10T08:43:30.377Z,53.60
2017-05-10T08:45:59.531Z,52.70
2017-05-10T08:48:28.688Z,53.00
2017-05-10T08:50:57.859Z,54.40
2017-05-10T08:53:27.760Z,53.70
2017-05-10T08:55:57.664Z,52.60
2017-05-10T08:58:26.820Z,52.90
2017-05-10T09:00:56.009Z,53.00
2017-05-10T09:03:25.167Z,52.30
2017-05-10T09:05:55.076Z,53.20
2017-05-10T09:08:24.240Z,53.70
2017-05-10T09:10:53.396Z,53.80
2017-05-10T09:13:23.326Z,54.20
2017-05-10T09:15:52.480Z,53.70
2017-05-10T09:18:21.639Z,54.90
2017-05-10T09:20:50.808Z,54.00
2017-05-10T09:23:19.972Z,53.50
2017-05-10T09:25:49.153Z,52.90
2017-05-10T09:28:18.312Z,52.90
2017-05-10T09:30:47.468Z,52.80
2017-05-10T09:33:16.637Z,52.20
2017-05-10T09:35:45.809Z,53.40
2017-05-10T09:38:14.976Z,53.40
2017-05-10T09:40:44.132Z,53.50
2017-05-10T09:43:13.303Z,53.10
2017-05-10T09:45:42.473Z,53.70
2017-05-10T09:48:12.395Z,52.20
2017-05-10T09:50:42.301Z,52.20
2017-05-10T09:53:11.466Z,52.90
2017-05-10T09:55:40.450Z,53.30
2017-05-10T09:58:09.608Z,52.80
2017-05-10T10:00:39.541Z,52.90
2017-05-10T10:03:08.701Z,52.60
2017-05-10T10:05:37.882Z,52.20
2017-05-10T10:08:07.035Z,53.30
2017-05-10T10:10:36.201Z,52.20
2017-05-10T10:13:06.327Z,52.70
2017-05-10T10:15:36.231Z,52.50
2017-05-10T10:18:05.399Z,52.50
2017-05-10T10:20:34.572Z,51.90
2017-05-10T10:23:03.844Z,51.90
2017-05-10T10:25:33.739Z,52.80
2017-05-10T10:28:02.932Z,51.70
2017-05-10T10:30:32.090Z,51.60
2017-05-10T10:33:01.248Z,51.30
2017-05-10T10:35:31.165Z,52.20
2017-05-10T10:38:01.060Z,50.90
2017-05-10T10:40:30.225Z,51.80
2017-05-10T10:42:59.384Z,51.40
2017-05-10T10:45:29.304Z,50.40
2017-05-10T10:47:59.209Z,49.60
2017-05-10T10:50:29.125Z,50.90
2017-05-10T10:52:59.041Z,51.50
2017-05-10T10:55:28.937Z,49.00
2017-05-10T10:57:58.104Z,50.80
2017-05-10T11:00:27.255Z,51.40
2017-05-10T11:02:57.186Z,49.40
2017-05-10T11:05:26.343Z,49.50
2017-05-10T11:07:55.495Z,50.40
2017-05-10T11:10:24.663Z,49.50
2017-05-10T11:12:54.559Z,48.70
2017-05-10T11:15:23.741Z,50.40
2017-05-10T11:17:52.903Z,49.50
2017-05-10T11:20:22.073Z,49.80
2017-05-10T11:22:51.968Z,50.20
2017-05-10T11:25:21.157Z,49.30
2017-05-10T11:27:50.321Z,49.70
2017-05-10T11:30:19.487Z,48.70
2017-05-10T11:32:49.405Z,50.40
2017-05-10T11:35:19.303Z,50.10
2017-05-10T11:37:48.474Z,50.70
2017-05-10T11:40:17.624Z,50.20
2017-05-10T11:42:46.813Z,50.90
2017-05-10T11:45:15.983Z,49.50
2017-05-10T11:47:45.146Z,45.20
2017-05-10T11:50:14.314Z,44.80
2017-05-10T11:52:44.207Z,47.60
2017-05-10T11:55:13.376Z,45.90
2017-05-10T11:57:42.535Z,46.00
2017-05-10T12:00:12.404Z,43.50
2017-05-10T12:02:41.556Z,43.70
2017-05-10T12:05:10.712Z,44.10
2017-05-10T12:07:39.884Z,44.30
2017-05-10T12:10:09.039Z,43.80
2017-05-10T12:12:38.213Z,42.60
2017-05-10T12:15:07.369Z,45.80
2017-05-10T12:17:36.560Z,45.10
2017-05-10T12:20:05.715Z,44.90
2017-05-10T12:22:35.621Z,45.60
2017-05-10T12:25:04.792Z,46.70
2017-05-10T12:27:33.947Z,46.40
2017-05-10T12:30:03.116Z,47.40
2017-05-10T12:32:32.272Z,45.40
2017-05-10T12:35:01.436Z,45.80
2017-05-10T12:37:30.592Z,45.30
2017-05-10T12:39:59.785Z,45.20
2017-05-10T12:42:29.015Z,44.00
2017-05-10T12:44:58.923Z,44.20
2017-05-10T12:47:28.136Z,45.90
2017-05-10T12:49:58.035Z,46.10
2017-05-10T12:52:27.204Z,46.60
2017-05-10T12:54:56.381Z,46.20
2017-05-10T12:57:25.572Z,45.30
2017-05-10T12:59:54.726Z,45.80
2017-05-10T13:02:23.880Z,47.10
2017-05-10T13:04:53.049Z,47.60
2017-05-10T13:07:22.980Z,46.30
2017-05-10T13:09:52.144Z,44.40
2017-05-10T13:12:21.303Z,43.20
2017-05-10T13:14:50.496Z,44.50
2017-05-10T13:17:19.652Z,43.40
2017-05-10T13:19:49.576Z,43.10
2017-05-10T13:22:19.025Z,43.20
2017-05-10T13:24:48.184Z,43.60
2017-05-10T13:27:17.371Z,43.80
2017-05-10T13:29:47.266Z,44.60
2017-05-10T13:32:16.081Z,44.10
2017-05-10T13:34:45.253Z,40.50
2017-05-10T13:37:14.415Z,41.60
2017-05-10T13:39:43.608Z,43.20
2017-05-10T13:42:12.762Z,43.90
2017-05-10T13:44:42.671Z,43.20
2017-05-10T13:47:12.599Z,44.40
2017-05-10T13:49:42.495Z,41.80
2017-05-10T13:52:11.672Z,42.80
2017-05-10T13:54:40.828Z,43.70
2017-05-10T13:57:09.988Z,42.80
2017-05-10T13:59:39.164Z,44.40
2017-05-10T14:02:08.317Z,43.70
2017-05-10T14:04:37.503Z,42.90
2017-05-10T14:07:07.401Z,43.60
2017-05-10T14:09:36.576Z,44.20
2017-05-10T14:12:05.747Z,45.50
2017-05-10T14:14:34.916Z,44.30
2017-05-10T14:17:04.834Z,43.80
2017-05-10T14:19:34.745Z,44.00
2017-05-10T14:22:03.953Z,45.40
2017-05-10T14:24:33.115Z,43.90
2017-05-10T14:27:02.282Z,44.30
2017-05-10T14:29:31.542Z,44.90
2017-05-10T14:32:01.439Z,44.50
2017-05-10T14:34:30.640Z,43.80
2017-05-10T14:36:59.799Z,45.10
2017-05-10T14:39:28.966Z,45.30
2017-05-10T14:41:58.136Z,45.70
2017-05-10T14:44:27.298Z,45.80
2017-05-10T14:46:56.483Z,45.60
2017-05-10T14:49:25.643Z,47.10
2017-05-10T14:51:55.554Z,46.40
2017-05-10T14:54:24.719Z,45.20
2017-05-10T14:56:53.906Z,44.70
2017-05-10T14:59:23.118Z,46.70
2017-05-10T15:01:52.956Z,44.70
2017-05-10T15:04:22.130Z,45.90
2017-05-10T15:06:51.297Z,46.10
2017-05-10T15:09:20.461Z,45.70
2017-05-10T15:11:50.375Z,44.90
2017-05-10T15:14:20.291Z,46.40
2017-05-10T15:16:50.214Z,43.70
2017-05-10T15:19:20.109Z,44.40
2017-05-10T15:21:49.284Z,46.30
2017-05-10T15:24:18.457Z,47.00
2017-05-10T15:26:47.615Z,47.40
2017-05-10T15:29:17.549Z,46.90
2017-05-10T15:31:46.711Z,46.50
2017-05-10T15:34:15.867Z,46.50
2017-05-10T15:36:45.042Z,45.90
2017-05-10T15:39:14.211Z,46.90
2017-05-10T15:41:43.387Z,46.90
2017-05-10T15:44:12.540Z,47.60
2017-05-10T15:46:41.717Z,47.20
2017-05-10T15:49:11.611Z,46.80
2017-05-10T15:51:41.101Z,46.10
2017-05-10T15:54:10.265Z,46.30
2017-05-10T15:56:39.427Z,48.10
2017-05-10T15:59:08.907Z,46.30
2017-05-10T16:01:38.055Z,45.80
2017-05-10T16:04:07.972Z,46.70
2017-05-10T16:06:37.165Z,47.60
2017-05-10T16:09:07.073Z,47.00
2017-05-10T16:11:37.093Z,46.00
2017-05-10T16:14:07.005Z,47.40
2017-05-10T16:16:37.194Z,48.60
2017-05-10T16:19:06.378Z,47.30
2017-05-10T16:21:35.543Z,47.70
2017-05-10T16:24:04.735Z,48.40
2017-05-10T16:26:34.635Z,47.90
2017-05-10T16:29:05.067Z,47.40
2017-05-10T16:31:34.977Z,47.30
2017-05-10T16:34:04.144Z,47.80
2017-05-10T16:36:33.341Z,49.10
2017-05-10T16:39:02.313Z,48.70
2017-05-10T16:41:31.856Z,48.10
2017-05-10T16:44:01.045Z,48.60
2017-05-10T16:46:30.205Z,49.10
2017-05-10T16:48:59.360Z,49.30
2017-05-10T16:51:28.549Z,48.80
2017-05-10T16:53:57.712Z,48.60
2017-05-10T16:56:26.527Z,49.30
2017-05-10T16:58:55.724Z,48.30
2017-05-10T17:01:24.981Z,49.70
2017-05-10T17:03:54.140Z,49.50
2017-05-10T17:06:23.334Z,50.40
2017-05-10T17:08:52.494Z,50.20
2017-05-10T17:11:21.662Z,50.00
2017-05-10T17:13:51.614Z,50.20
2017-05-10T17:16:20.911Z,49.80
2017-05-10T17:18:50.289Z,49.80
2017-05-10T17:21:19.803Z,50.90
2017-05-10T17:23:49.272Z,49.70
2017-05-10T17:26:18.736Z,49.80
2017-05-10T17:28:48.232Z,49.90
2017-05-10T17:31:17.718Z,49.60
2017-05-10T17:33:47.182Z,49.50
2017-05-10T17:36:16.681Z,49.80
2017-05-10T17:38:46.170Z,50.40
2017-05-10T17:41:16.426Z,49.10
2017-05-10T17:43:47.179Z,48.80
2017-05-10T17:46:16.826Z,48.80
2017-05-10T17:48:47.562Z,49.80
2017-05-10T17:51:17.187Z,49.80
2017-05-10T17:53:47.413Z,50.00
2017-05-10T17:56:17.662Z,49.80
2017-05-10T17:58:47.147Z,50.10
2017-05-10T18:01:17.382Z,49.80
2017-05-10T18:03:47.665Z,49.90
2017-05-10T18:06:17.448Z,50.50
2017-05-10T18:08:46.966Z,51.30
2017-05-10T18:11:16.458Z,51.30
2017-05-10T18:13:45.950Z,51.50
2017-05-10T18:16:15.428Z,51.30
2017-05-10T18:18:45.675Z,51.50
2017-05-10T18:21:15.181Z,51.80
2017-05-10T18:23:44.677Z,51.80
2017-05-10T18:26:14.196Z,52.20
2017-05-10T18:28:43.658Z,52.30
2017-05-10T18:31:13.139Z,52.50
2017-05-10T18:33:42.686Z,52.80
2017-05-10T18:36:12.892Z,53.40
2017-05-10T18:38:42.435Z,54.00
2017-05-10T18:41:11.903Z,54.80
2017-05-10T18:43:41.412Z,54.30
2017-05-10T18:46:10.927Z,54.60
2017-05-10T18:48:41.134Z,55.50
2017-05-10T18:51:10.636Z,54.90
2017-05-10T18:53:40.125Z,55.70
2017-05-10T18:56:09.600Z,55.40
2017-05-10T18:58:39.136Z,55.50
2017-05-10T19:01:08.631Z,55.70
2017-05-10T19:03:38.115Z,55.70
2017-05-10T19:06:07.643Z,56.00
2017-05-10T19:08:37.130Z,56.40
2017-05-10T19:11:06.705Z,56.40
2017-05-10T19:13:35.944Z,56.80
2017-05-10T19:16:04.759Z,57.80
2017-05-10T19:18:33.913Z,56.70
2017-05-10T19:21:03.080Z,56.80
2017-05-10T19:23:32.237Z,57.00
2017-05-10T19:26:02.158Z,57.00
2017-05-10T19:28:32.184Z,57.60
2017-05-10T19:31:02.084Z,57.30
2017-05-10T19:33:32.013Z,57.70
2017-05-10T19:36:01.912Z,57.80
2017-05-10T19:38:31.089Z,58.70
2017-05-10T19:41:00.259Z,60.90
2017-05-10T19:43:29.413Z,61.40
2017-05-10T19:45:59.316Z,63.00
2017-05-10T19:48:28.295Z,62.70
2017-05-10T19:50:57.452Z,63.90
2017-05-10T19:53:26.604Z,66.90
2017-05-10T19:55:55.784Z,65.00
2017-05-10T19:58:24.751Z,68.80
2017-05-10T20:00:53.910Z,64.40
2017-05-10T20:03:23.831Z,64.80
2017-05-10T20:05:53.725Z,63.80
2017-05-10T20:08:22.888Z,64.30
2017-05-10T20:10:52.038Z,63.40
2017-05-10T20:13:21.932Z,65.50
2017-05-10T20:15:51.116Z,66.70
2017-05-10T20:18:20.267Z,67.10
2017-05-10T20:20:49.420Z,67.70
2017-05-10T20:23:18.607Z,69.70
2017-05-10T20:25:47.759Z,68.20
2017-05-10T20:28:16.912Z,67.80
2017-05-10T20:30:46.103Z,67.50
2017-05-10T20:33:15.258Z,66.90
2017-05-10T20:35:44.412Z,68.00
2017-05-10T20:38:13.596Z,65.80
2017-05-10T20:40:43.432Z,66.40
2017-05-10T20:43:12.590Z,68.90
2017-05-10T20:45:42.524Z,68.00
2017-05-10T20:48:11.345Z,68.80
2017-05-10T20:50:40.507Z,69.50
2017-05-10T20:53:09.708Z,70.20
2017-05-10T20:55:39.149Z,70.80
2017-05-10T20:58:08.321Z,69.20
2017-05-10T21:00:37.752Z,70.10
2017-05-10T21:03:06.927Z,71.50
2017-05-10T21:05:36.097Z,70.60
2017-05-10T21:08:05.295Z,71.00
2017-05-10T21:10:34.469Z,70.80
2017-05-10T21:13:03.631Z,70.90
2017-05-10T21:15:32.824Z,70.30
2017-05-10T21:18:01.991Z,70.40
2017-05-10T21:20:31.156Z,70.40
2017-05-10T21:23:00.352Z,70.40
2017-05-10T21:25:29.527Z,71.70
2017-05-10T21:27:58.721Z,71.90
2017-05-10T21:30:27.958Z,72.60
2017-05-10T21:32:57.121Z,72.40
2017-05-10T21:35:26.302Z,73.10
2017-05-10T21:37:55.556Z,72.40
2017-05-10T21:40:24.720Z,72.60
2017-05-10T21:42:53.882Z,72.10
2017-05-10T21:45:23.075Z,73.50
2017-05-10T21:47:52.244Z,74.30
2017-05-10T21:50:21.417Z,74.60
2017-05-10T21:52:50.605Z,73.20
2017-05-10T21:55:19.774Z,73.40
2017-05-10T21:57:48.932Z,74.60
2017-05-10T22:00:18.120Z,72.70
2017-05-10T22:02:47.295Z,72.70
2017-05-10T22:05:16.458Z,72.90
2017-05-10T22:07:45.639Z,74.20
2017-05-10T22:10:15.539Z,73.70
2017-05-10T22:12:44.711Z,73.80
2017-05-10T22:15:13.903Z,72.60
2017-05-10T22:17:43.062Z,74.00
2017-05-10T22:20:12.979Z,73.70
2017-05-10T22:22:42.903Z,73.50
2017-05-10T22:25:12.064Z,73.30
2017-05-10T22:27:41.228Z,73.60
2017-05-10T22:30:10.067Z,74.60
2017-05-10T22:32:39.972Z,75.10
2017-05-10T22:35:09.145Z,73.60
2017-05-10T22:37:38.335Z,74.20
2017-05-10T22:40:07.495Z,74.00
2017-05-10T22:42:37.412Z,74.90
2017-05-10T22:45:07.347Z,75.50
2017-05-10T22:47:36.512Z,75.00
2017-05-10T22:50:06.427Z,75.40
2017-05-10T22:52:35.621Z,75.50
2017-05-10T22:55:04.785Z,75.70
2017-05-10T22:57:33.956Z,75.30
2017-05-10T23:00:03.155Z,75.30
2017-05-10T23:02:32.327Z,75.50
2017-05-10T23:05:02.263Z,75.90
2017-05-10T23:07:31.456Z,76.50
2017-05-10T23:10:00.624Z,77.60
2017-05-10T23:12:30.109Z,77.60
2017-05-10T23:14:59.303Z,78.00
2017-05-10T23:17:28.467Z,77.10
2017-05-10T23:19:57.631Z,76.60
2017-05-10T23:22:27.572Z,77.00
2017-05-10T23:24:56.739Z,77.60
2017-05-10T23:27:25.904Z,77.60
2017-05-10T23:29:55.109Z,77.90
2017-05-10T23:32:24.275Z,77.80
2017-05-10T23:34:53.717Z,78.30
2017-05-10T23:37:22.919Z,78.20
2017-05-10T23:39:52.097Z,79.00
2017-05-10T23:42:21.624Z,78.90
2017-05-10T23:44:50.803Z,79.20
2017-05-10T23:47:19.963Z,79.10
2017-05-10T23:49:49.131Z,78.90
2017-05-10T23:52:18.323Z,78.50
2017-05-10T23:54:47.488Z,79.00
2017-05-10T23:57:16.659Z,80.60
2017-05-10T23:59:45.861Z,80.00
